createdAt,value
2022-08-30T00:01:06.798Z,14.30
2022-08-30T00:03:43.854Z,14.40
2022-08-30T00:06:16.373Z,14.50
2022-08-30T00:08:48.003Z,14.60
2022-08-30T00:11:23.150Z,14.60
2022-08-30T00:13:55.183Z,14.70
2022-08-30T00:16:27.352Z,14.80
2022-08-30T00:18:58.706Z,14.90
2022-08-30T00:21:28.955Z,15.00
2022-08-30T00:23:59.249Z,15.10
2022-08-30T00:26:29.511Z,15.10
2022-08-30T00:29:00.541Z,15.10
2022-08-30T00:31:30.770Z,15.10
2022-08-30T00:34:02.099Z,15.00
2022-08-30T00:36:32.309Z,15.00
2022-08-30T00:39:02.981Z,15.00
2022-08-30T00:41:33.638Z,15.00
2022-08-30T00:44:04.023Z,15.00
2022-08-30T00:46:34.325Z,15.20
2022-08-30T00:49:09.402Z,15.20
2022-08-30T00:51:41.150Z,15.20
2022-08-30T00:54:12.038Z,15.30
2022-08-30T00:56:43.017Z,15.30
2022-08-30T00:59:14.478Z,15.30
2022-08-30T01:01:45.063Z,15.30
2022-08-30T01:04:16.798Z,15.40
2022-08-30T01:06:47.726Z,15.30
2022-08-30T01:09:18.531Z,15.40
2022-08-30T01:12:08.267Z,15.50
2022-08-30T01:14:57.504Z,15.50
2022-08-30T01:17:40.293Z,15.60
2022-08-30T01:20:16.044Z,15.50
2022-08-30T01:22:52.590Z,15.60
2022-08-30T01:25:27.316Z,15.50
2022-08-30T01:28:06.045Z,15.50
2022-08-30T01:30:37.210Z,15.50
2022-08-30T01:33:09.514Z,15.50
2022-08-30T01:36:03.243Z,15.60
2022-08-30T01:38:41.852Z,15.60
2022-08-30T01:41:17.164Z,15.80
2022-08-30T01:43:48.092Z,15.80
2022-08-30T01:46:20.848Z,15.80
2022-08-30T01:48:53.890Z,15.80
2022-08-30T01:51:26.675Z,15.80
2022-08-30T01:53:57.995Z,15.90
2022-08-30T01:56:29.800Z,15.90
2022-08-30T01:59:03.083Z,15.80
2022-08-30T02:01:36.507Z,15.70
2022-08-30T02:04:11.066Z,15.80
2022-08-30T02:06:43.379Z,15.80
2022-08-30T02:09:16.266Z,15.90
2022-08-30T02:11:49.613Z,15.90
2022-08-30T02:14:22.819Z,16.00
2022-08-30T02:16:53.835Z,16.00
2022-08-30T02:19:24.192Z,15.90
2022-08-30T02:21:54.714Z,15.80
2022-08-30T02:24:25.282Z,15.80
2022-08-30T02:26:55.930Z,15.90
2022-08-30T02:29:27.721Z,15.90
2022-08-30T02:31:58.061Z,15.90
2022-08-30T02:34:28.791Z,15.80
2022-08-30T02:36:59.586Z,15.80
2022-08-30T02:39:30.321Z,15.60
2022-08-30T02:42:01.015Z,15.60
2022-08-30T02:44:31.298Z,15.60
2022-08-30T02:47:01.523Z,15.60
2022-08-30T02:49:34.096Z,15.70
2022-08-30T02:52:07.333Z,15.70
2022-08-30T02:54:38.099Z,15.90
2022-08-30T02:57:20.105Z,16.00
2022-08-30T02:59:54.877Z,16.10
2022-08-30T03:02:25.425Z,16.10
2022-08-30T03:04:56.505Z,16.00
2022-08-30T03:07:26.699Z,16.00
2022-08-30T03:09:57.104Z,16.00
2022-08-30T03:12:27.426Z,16.00
2022-08-30T03:14:58.193Z,16.00
2022-08-30T03:17:28.912Z,15.90
2022-08-30T03:20:01.996Z,15.70
2022-08-30T03:22:32.767Z,15.70
2022-08-30T03:25:03.484Z,15.70
2022-08-30T03:27:34.428Z,15.70
2022-08-30T03:30:04.806Z,15.70
2022-08-30T03:32:35.655Z,15.70
2022-08-30T03:35:06.099Z,15.80
2022-08-30T03:37:37.357Z,15.90
2022-08-30T03:40:09.212Z,15.70
2022-08-30T03:42:40.965Z,15.70
2022-08-30T03:45:14.580Z,15.70
2022-08-30T03:47:45.411Z,15.60
2022-08-30T03:50:18.116Z,15.70
2022-08-30T03:52:48.393Z,15.80
2022-08-30T03:55:19.381Z,15.80
2022-08-30T03:57:50.236Z,15.90
2022-08-30T04:00:23.048Z,16.00
2022-08-30T04:02:53.312Z,16.00
2022-08-30T04:05:24.666Z,16.00
2022-08-30T04:07:59.684Z,16.00
2022-08-30T04:10:30.108Z,16.00
2022-08-30T04:13:01.092Z,16.20
2022-08-30T04:15:31.446Z,16.30
2022-08-30T04:18:01.687Z,16.30
2022-08-30T04:20:31.939Z,16.20
2022-08-30T04:23:02.258Z,16.20
2022-08-30T04:25:32.879Z,16.20
2022-08-30T04:28:05.815Z,16.10
2022-08-30T04:30:36.420Z,16.00
2022-08-30T04:33:06.703Z,16.10
2022-08-30T04:35:37.345Z,16.10
2022-08-30T04:38:09.977Z,16.00
2022-08-30T04:40:40.589Z,16.00
2022-08-30T04:43:13.378Z,16.00
2022-08-30T04:45:45.935Z,15.90
2022-08-30T04:48:16.505Z,15.90
2022-08-30T04:50:46.866Z,15.90
2022-08-30T04:53:18.339Z,15.80
2022-08-30T04:55:48.856Z,15.70
2022-08-30T04:58:19.795Z,15.70
2022-08-30T05:00:50.098Z,15.70
2022-08-30T05:03:21.099Z,15.70
2022-08-30T05:05:53.329Z,15.70
2022-08-30T05:08:28.117Z,15.70
2022-08-30T05:10:58.387Z,15.70
2022-08-30T05:13:35.764Z,15.60
2022-08-30T05:16:10.046Z,15.50
2022-08-30T05:18:40.689Z,15.40
2022-08-30T05:21:15.630Z,15.40
2022-08-30T05:23:47.138Z,15.20
2022-08-30T05:26:25.042Z,15.10
2022-08-30T05:28:56.534Z,14.80
2022-08-30T05:31:27.137Z,14.60
2022-08-30T05:33:59.178Z,14.50
2022-08-30T05:36:34.448Z,14.50
2022-08-30T05:39:06.361Z,14.50
2022-08-30T05:41:37.146Z,14.40
2022-08-30T05:44:10.330Z,14.30
2022-08-30T05:46:41.282Z,14.20
2022-08-30T05:49:12.193Z,14.10
2022-08-30T05:51:43.720Z,14.10
2022-08-30T05:54:16.493Z,14.10
2022-08-30T05:56:48.172Z,14.10
2022-08-30T05:59:19.759Z,14.10
2022-08-30T06:01:50.532Z,14.10
2022-08-30T06:04:21.120Z,14.00
2022-08-30T06:06:52.047Z,14.00
2022-08-30T06:09:22.663Z,13.90
2022-08-30T06:11:52.952Z,13.80
2022-08-30T06:14:24.080Z,13.80
2022-08-30T06:16:54.472Z,13.70
2022-08-30T06:19:25.347Z,13.60
2022-08-30T06:21:55.617Z,13.50
2022-08-30T06:24:41.133Z,13.40
2022-08-30T06:27:17.065Z,13.30
2022-08-30T06:29:47.715Z,13.30
2022-08-30T06:32:18.232Z,13.30
2022-08-30T06:34:49.472Z,13.30
2022-08-30T06:37:29.344Z,13.20
2022-08-30T06:40:01.948Z,13.20
2022-08-30T06:42:36.173Z,13.20
2022-08-30T06:45:10.685Z,13.10
2022-08-30T06:47:42.311Z,13.10
2022-08-30T06:50:18.818Z,13.10
2022-08-30T06:52:49.706Z,13.10
2022-08-30T06:55:21.819Z,13.00
2022-08-30T06:57:52.624Z,12.90
2022-08-30T07:00:25.317Z,12.90
2022-08-30T07:02:58.071Z,12.90
2022-08-30T07:05:31.073Z,12.90
2022-08-30T07:08:02.983Z,12.90
2022-08-30T07:10:33.554Z,12.80
2022-08-30T07:13:03.709Z,12.80
2022-08-30T07:15:34.016Z,12.80
2022-08-30T07:18:27.018Z,12.80
2022-08-30T07:20:57.725Z,12.80
2022-08-30T07:23:28.064Z,12.80
2022-08-30T07:25:58.979Z,12.80
2022-08-30T07:28:39.413Z,12.80
2022-08-30T07:34:19.813Z,12.80
2022-08-30T07:42:31.115Z,12.70
2022-08-30T07:48:02.452Z,12.70
2022-08-30T07:50:32.779Z,12.70
2022-08-30T07:53:11.810Z,12.60
2022-08-30T07:55:58.654Z,12.60
2022-08-30T07:58:39.809Z,12.60
2022-08-30T08:01:50.177Z,12.60
2022-08-30T08:07:18.648Z,12.50
2022-08-30T08:09:50.892Z,12.50
2022-08-30T08:12:23.022Z,12.50
2022-08-30T08:15:01.392Z,12.40
2022-08-30T08:17:55.324Z,12.50
2022-08-30T08:20:34.038Z,12.50
2022-08-30T08:23:27.367Z,12.40
2022-08-30T08:26:08.777Z,12.40
2022-08-30T08:28:39.123Z,12.40
2022-08-30T08:31:54.086Z,12.30
2022-08-30T08:34:27.668Z,12.30
2022-08-30T08:37:05.340Z,12.30
2022-08-30T08:39:39.219Z,12.30
2022-08-30T08:42:38.064Z,12.30
2022-08-30T08:48:10.554Z,12.20
2022-08-30T08:51:06.375Z,12.20
2022-08-30T08:53:47.203Z,12.20
2022-08-30T08:56:49.226Z,12.10
2022-08-30T08:59:20.906Z,12.10
2022-08-30T09:02:04.735Z,12.10
2022-08-30T09:05:18.678Z,12.10
2022-08-30T09:08:17.535Z,12.00
2022-08-30T09:11:12.828Z,12.00
2022-08-30T09:13:44.091Z,11.90
2022-08-30T09:35:26.759Z,11.60
2022-08-30T09:41:51.586Z,11.50
2022-08-30T09:44:53.242Z,11.40
2022-08-30T09:47:43.711Z,11.40
2022-08-30T09:50:33.930Z,11.40
2022-08-30T09:54:17.530Z,11.30
2022-08-30T10:04:18.862Z,11.20
2022-08-30T10:07:53.570Z,11.10
2022-08-30T10:11:00.586Z,11.10
2022-08-30T10:17:46.939Z,11.00
2022-08-30T10:24:50.896Z,10.80
2022-08-30T10:30:48.737Z,10.80
2022-08-30T10:37:07.582Z,10.70
2022-08-30T10:40:39.234Z,10.60
2022-08-30T10:44:07.626Z,10.60
2022-08-30T10:47:25.682Z,10.60
2022-08-30T10:50:14.410Z,10.50
2022-08-30T10:53:09.266Z,10.50
2022-08-30T11:03:12.108Z,10.50
2022-08-30T11:06:22.475Z,10.40
2022-08-30T11:09:09.168Z,10.40
2022-08-30T11:15:28.775Z,10.40
2022-08-30T11:21:31.064Z,10.20
2022-08-30T11:24:06.600Z,10.20
2022-08-30T11:27:01.209Z,10.10
2022-08-30T11:29:31.691Z,10.10
2022-08-30T11:32:19.021Z,10.00
2022-08-30T11:34:49.597Z,10.00
2022-08-30T11:37:42.154Z,10.00
2022-08-30T11:40:25.240Z,9.90
2022-08-30T11:42:58.838Z,9.90
2022-08-30T11:45:30.325Z,9.90
2022-08-30T11:48:04.683Z,9.90
2022-08-30T11:50:38.622Z,9.90
2022-08-30T11:53:44.690Z,9.80
2022-08-30T11:56:52.312Z,9.80
2022-08-30T11:59:58.313Z,9.80
2022-08-30T12:03:01.790Z,9.80
2022-08-30T12:05:44.560Z,9.70
2022-08-30T12:08:36.320Z,9.80
2022-08-30T12:11:08.604Z,9.80
2022-08-30T12:13:39.589Z,9.80
2022-08-30T12:17:08.216Z,9.70
2022-08-30T12:19:41.307Z,9.70
2022-08-30T12:22:20.040Z,9.70
2022-08-30T12:24:57.854Z,9.70
2022-08-30T12:27:36.173Z,9.70
2022-08-30T12:30:35.451Z,9.70
2022-08-30T12:33:15.709Z,9.80
2022-08-30T12:35:49.610Z,9.80
2022-08-30T12:38:36.337Z,9.80
2022-08-30T12:41:31.340Z,9.80
2022-08-30T12:44:24.738Z,9.70
2022-08-30T12:53:15.762Z,9.80
2022-08-30T12:56:40.635Z,9.80
2022-08-30T12:59:15.440Z,9.80
2022-08-30T13:01:46.407Z,9.80
2022-08-30T13:04:23.448Z,9.80
2022-08-30T13:06:59.186Z,9.70
2022-08-30T13:09:43.085Z,9.70
2022-08-30T13:12:36.046Z,9.70
2022-08-30T13:15:34.607Z,9.70
2022-08-30T13:18:34.316Z,9.70
2022-08-30T13:21:27.669Z,9.60
2022-08-30T13:24:07.050Z,9.60
2022-08-30T13:26:40.034Z,9.60
2022-08-30T13:29:27.815Z,9.60
2022-08-30T13:31:59.140Z,9.50
2022-08-30T13:34:29.926Z,9.60
2022-08-30T13:37:01.586Z,9.50
2022-08-30T13:39:32.383Z,9.60
2022-08-30T13:42:33.711Z,9.50
2022-08-30T13:44:54.332Z,9.50
2022-08-30T13:47:36.974Z,9.50
2022-08-30T13:53:15.541Z,9.40
2022-08-30T13:58:54.583Z,9.20
2022-08-30T14:04:59.754Z,9.00
2022-08-30T14:07:32.946Z,9.00
2022-08-30T14:13:00.821Z,8.90
2022-08-30T14:15:39.363Z,8.80
2022-08-30T14:18:18.096Z,8.70
2022-08-30T14:20:49.419Z,8.70
2022-08-30T14:23:20.240Z,8.60
2022-08-30T14:26:00.432Z,8.60
2022-08-30T14:28:32.065Z,8.50
2022-08-30T14:31:05.221Z,8.50
2022-08-30T14:33:39.816Z,8.40
2022-08-30T14:36:15.790Z,8.40
2022-08-30T14:38:53.000Z,8.30
2022-08-30T14:41:27.463Z,8.30
2022-08-30T14:44:00.436Z,8.30
2022-08-30T14:46:33.653Z,8.30
2022-08-30T14:49:11.347Z,8.30
2022-08-30T14:51:51.068Z,8.30
2022-08-30T14:54:35.092Z,8.30
2022-08-30T14:57:13.529Z,8.20
2022-08-30T14:59:51.144Z,8.20
2022-08-30T15:05:16.362Z,8.20
2022-08-30T15:08:13.997Z,8.20
2022-08-30T15:14:03.088Z,8.20
2022-08-30T15:16:57.744Z,8.10
2022-08-30T15:25:56.332Z,8.10
2022-08-30T15:31:36.560Z,8.10
2022-08-30T15:34:33.219Z,8.00
2022-08-30T15:40:05.345Z,7.90
2022-08-30T15:42:46.846Z,7.80
2022-08-30T15:45:20.339Z,7.80
2022-08-30T15:48:02.565Z,7.80
2022-08-30T15:50:39.863Z,7.80
2022-08-30T15:53:18.549Z,7.80
2022-08-30T15:55:49.698Z,7.70
2022-08-30T15:58:21.547Z,7.70
2022-08-30T16:00:53.550Z,7.60
2022-08-30T16:03:27.711Z,7.60
2022-08-30T16:05:59.068Z,7.60
2022-08-30T16:08:34.301Z,7.60
2022-08-30T16:11:11.788Z,7.70
2022-08-30T16:13:42.353Z,7.70
2022-08-30T16:16:12.983Z,7.70
2022-08-30T16:18:43.456Z,7.80
2022-08-30T16:21:23.279Z,7.80
2022-08-30T16:23:54.092Z,7.80
2022-08-30T16:26:26.520Z,7.80
2022-08-30T16:28:57.764Z,7.80
2022-08-30T16:31:30.669Z,7.80
2022-08-30T16:34:02.382Z,7.80
2022-08-30T16:36:37.619Z,7.80
2022-08-30T16:39:10.048Z,7.80
2022-08-30T16:41:40.884Z,7.80
2022-08-30T16:44:11.943Z,7.90
2022-08-30T16:46:53.784Z,7.90
2022-08-30T16:49:25.817Z,7.90
2022-08-30T16:51:56.251Z,8.00
2022-08-30T16:54:26.961Z,8.00
2022-08-30T16:56:57.503Z,8.00
2022-08-30T16:59:28.341Z,8.10
2022-08-30T17:01:58.741Z,8.20
2022-08-30T17:04:29.948Z,8.20
2022-08-30T17:07:00.288Z,8.20
2022-08-30T17:09:30.659Z,8.30
2022-08-30T17:12:00.939Z,8.30
2022-08-30T17:14:34.207Z,8.30
2022-08-30T17:17:05.193Z,8.30
2022-08-30T17:19:41.044Z,8.40
2022-08-30T17:22:15.771Z,8.30
2022-08-30T17:24:47.964Z,8.30
2022-08-30T17:27:19.219Z,8.30
2022-08-30T17:29:49.490Z,8.30
2022-08-30T17:32:19.864Z,8.30
2022-08-30T17:34:50.672Z,8.40
2022-08-30T17:37:22.489Z,8.40
2022-08-30T17:39:53.691Z,8.40
2022-08-30T17:42:24.861Z,8.40
2022-08-30T17:45:06.731Z,8.50
2022-08-30T17:47:37.218Z,8.50
2022-08-30T17:50:09.169Z,8.60
2022-08-30T17:52:39.539Z,8.70
2022-08-30T17:55:10.892Z,8.70
2022-08-30T17:57:44.243Z,8.80
2022-08-30T18:00:16.139Z,8.80
2022-08-30T18:02:46.568Z,8.90
2022-08-30T18:05:24.470Z,9.00
2022-08-30T18:07:57.439Z,9.00
2022-08-30T18:10:34.802Z,9.10
2022-08-30T18:13:05.762Z,9.10
2022-08-30T18:15:36.665Z,9.20
2022-08-30T18:18:09.119Z,9.20
2022-08-30T18:20:42.004Z,9.30
2022-08-30T18:23:14.244Z,9.30
2022-08-30T18:25:52.821Z,9.30
2022-08-30T18:28:23.073Z,9.40
2022-08-30T18:30:54.521Z,9.40
2022-08-30T18:33:27.124Z,9.40
2022-08-30T18:35:59.942Z,9.40
2022-08-30T18:38:33.232Z,9.40
2022-08-30T18:41:08.453Z,9.40
2022-08-30T18:43:39.912Z,9.50
2022-08-30T18:46:12.837Z,9.40
2022-08-30T18:48:46.636Z,9.50
2022-08-30T18:51:24.783Z,9.50
2022-08-30T18:53:57.532Z,9.50
2022-08-30T18:56:33.133Z,9.50
2022-08-30T18:59:03.976Z,9.50
2022-08-30T19:01:38.450Z,9.60
2022-08-30T19:04:11.458Z,9.60
2022-08-30T19:06:55.240Z,9.60
2022-08-30T19:09:26.605Z,9.60
2022-08-30T19:11:57.830Z,9.60
2022-08-30T19:14:28.794Z,9.60
2022-08-30T19:17:06.594Z,9.60
2022-08-30T19:19:48.233Z,9.60
2022-08-30T19:22:27.506Z,9.60
2022-08-30T19:25:01.115Z,9.70
2022-08-30T19:27:38.292Z,9.70
2022-08-30T19:30:23.125Z,9.70
2022-08-30T19:32:56.662Z,9.70
2022-08-30T19:35:30.155Z,9.70
2022-08-30T19:38:01.913Z,9.70
2022-08-30T19:40:32.380Z,9.70
2022-08-30T19:43:03.645Z,9.70
2022-08-30T19:45:35.632Z,9.70
2022-08-30T19:48:06.601Z,9.70
2022-08-30T19:50:37.292Z,9.70
2022-08-30T19:53:08.498Z,9.60
2022-08-30T19:55:38.894Z,9.60
2022-08-30T19:58:09.717Z,9.60
2022-08-30T20:00:52.954Z,9.50
2022-08-30T20:03:25.078Z,9.50
2022-08-30T20:05:55.805Z,9.40
2022-08-30T20:08:26.627Z,9.30
2022-08-30T20:10:58.463Z,9.30
2022-08-30T20:13:29.714Z,9.20
2022-08-30T20:16:05.083Z,9.10
2022-08-30T20:18:35.353Z,9.00
2022-08-30T20:21:13.538Z,9.00
2022-08-30T20:23:46.142Z,9.00
2022-08-30T20:26:18.145Z,8.90
2022-08-30T20:28:48.418Z,8.90
2022-08-30T20:31:19.542Z,8.90
2022-08-30T20:33:50.559Z,8.90
2022-08-30T20:36:21.068Z,9.00
2022-08-30T20:38:51.870Z,9.00
2022-08-30T20:41:22.724Z,9.00
2022-08-30T20:43:53.634Z,9.10
2022-08-30T20:46:24.537Z,9.10
2022-08-30T20:48:55.094Z,9.20
2022-08-30T20:51:25.448Z,9.30
2022-08-30T20:53:57.996Z,9.40
2022-08-30T20:56:31.097Z,9.40
2022-08-30T20:59:04.083Z,9.50
2022-08-30T21:01:38.312Z,9.50
2022-08-30T21:04:10.997Z,9.60
2022-08-30T21:06:42.563Z,9.60
2022-08-30T21:09:13.004Z,9.70
2022-08-30T21:11:44.608Z,9.70
2022-08-30T21:14:15.570Z,9.80
2022-08-30T21:16:46.182Z,9.80
2022-08-30T21:19:17.028Z,9.90
2022-08-30T21:21:47.285Z,9.90
2022-08-30T21:24:20.894Z,9.90
2022-08-30T21:26:54.827Z,9.90
2022-08-30T21:29:25.482Z,9.90
2022-08-30T21:31:56.801Z,10.00
2022-08-30T21:34:28.077Z,10.00
2022-08-30T21:36:59.721Z,10.00
2022-08-30T21:39:31.420Z,10.10
2022-08-30T21:42:01.602Z,10.10
2022-08-30T21:44:32.344Z,10.10
2022-08-30T21:47:02.584Z,10.20
2022-08-30T21:49:34.134Z,10.20
2022-08-30T21:52:04.473Z,10.20
2022-08-30T21:54:35.459Z,10.20
2022-08-30T21:57:06.821Z,10.30
2022-08-30T21:59:37.466Z,10.30
2022-08-30T22:02:08.264Z,10.30
2022-08-30T22:04:38.738Z,10.40
2022-08-30T22:07:10.542Z,10.50
2022-08-30T22:09:41.333Z,10.40
2022-08-30T22:12:15.739Z,10.40
2022-08-30T22:14:46.364Z,10.40
2022-08-30T22:17:16.713Z,10.50
2022-08-30T22:19:49.181Z,10.50
2022-08-30T22:22:21.007Z,10.50
2022-08-30T22:24:54.365Z,10.60
2022-08-30T22:27:25.927Z,10.60
2022-08-30T22:29:56.407Z,10.70
2022-08-30T22:32:26.758Z,10.80
2022-08-30T22:34:57.088Z,10.90
2022-08-30T22:37:36.870Z,10.90
2022-08-30T22:40:07.635Z,11.00
2022-08-30T22:42:38.744Z,11.10
2022-08-30T22:45:09.878Z,11.10
2022-08-30T22:47:40.553Z,11.20
2022-08-30T22:50:11.131Z,11.40
2022-08-30T22:52:42.867Z,11.50
2022-08-30T22:55:13.993Z,11.60
2022-08-30T22:57:44.626Z,11.80
2022-08-30T23:00:20.372Z,11.90
2022-08-30T23:02:54.068Z,11.90
2022-08-30T23:05:25.838Z,12.00
2022-08-30T23:07:56.482Z,12.00
2022-08-30T23:10:29.868Z,12.00
2022-08-30T23:13:01.426Z,12.00
2022-08-30T23:15:32.794Z,12.00
2022-08-30T23:18:03.119Z,11.90
2022-08-30T23:20:33.490Z,11.90
2022-08-30T23:23:03.765Z,11.90
2022-08-30T23:25:54.025Z,12.00
2022-08-30T23:28:42.186Z,12.10
2022-08-30T23:31:34.324Z,12.30
2022-08-30T23:34:24.158Z,12.50
2022-08-30T23:37:12.386Z,12.60
2022-08-30T23:40:00.451Z,12.70
2022-08-30T23:42:50.320Z,12.80
2022-08-30T23:45:38.633Z,12.90
2022-08-30T23:48:26.693Z,13.00
2022-08-30T23:51:21.937Z,13.20
2022-08-30T23:54:13.785Z,13.40
2022-08-30T23:57:02.192Z,13.60
2022-08-30T23:59:50.843Z,13.60
